Terminal Aerodrome Forecast
Issued by NWS

Home | Current Version | Previous Version | Text Only | Print | Product List | Glossary On
Versions: 1 2 3 4 5 6 7 8 9 10 11 12 13 14 15 16 17 18 19 20 21 22 23 24 25 26 27 28 29 30 31 32 33 34 35 36 37 38 39 40 41 42 43 44 45 46 47 48 49 50
000
FTAK31 PANC 231130
TAFASD
TAF
PASD 231130Z 2312/2412 05012G20KT 4SM -RA FEW008 BKN012 OVC025
     FM231400 17013KT 6SM -RA BKN015 OVC025
     FM232000 16012KT 4SM -RA OVC015
     FM240200 16012KT P6SM -RA OVC025
      AMD LTD TO CLD VIS AND WIND=

USA.gov is the U.S. government's official web portal to all federal, state and local government web resources and services.